Time;durP1;ratioP1;P1;durP2;ratioP2;P2;SDS_P1;SDS_P2;PMS_P1;PMS_P2;Temp;Humidity;BMP_temperature;BMP_pressure;BME280_temperature;BME280_humidity;BME280_pressure;Samples;Min_cycle;Max_cycle;Signal;HPM_P1;HPM_P2
2024/01/30 00:02:03;;;;;;;8.15;3.50;;;;;;;;;;4941160;29;20039;-79
2024/01/30 00:04:41;;;;;;;8.85;3.10;;;;;;;;;;4925530;29;20039;-79
2024/01/30 00:07:31;;;;;;;10.35;3.25;;;;;;;;;;4957152;29;20035;-79
2024/01/30 00:10:56;;;;;;;;;;;;;;;;;;;;;
2024/01/30 00:13:24;;;;;;;6.65;3.33;;;;;;;;;;4956826;29;20035;-79
2024/01/30 00:15:58;;;;;;;8.02;4.07;;;;;;;;;;4958201;28;20122;-80
2024/01/30 00:18:27;;;;;;;5.63;2.88;;;;;;;;;;4958322;28;20565;-80
2024/01/30 00:20:55;;;;;;;6.82;3.00;;;;;;;;;;4959237;28;20050;-79
2024/01/30 00:23:27;;;;;;;7.15;3.20;;;;;;;;;;4959114;28;20046;-80
2024/01/30 00:26:02;;;;;;;11.65;3.30;;;;;;;;;;4977149;28;20130;-81
2024/01/30 00:28:58;;;;;;;8.30;3.22;;;;;;;;;;4937153;29;20489;-80
2024/01/30 00:31:30;;;;;;;7.22;2.92;;;;;;;;;;4945768;29;20039;-80
2024/01/30 00:34:05;;;;;;;8.80;3.40;;;;;;;;;;4916821;29;20032;-81
2024/01/30 00:36:31;;;;;;;8.63;3.10;;;;;;;;;;4932677;29;20047;-80
2024/01/30 00:39:06;;;;;;;7.55;2.90;;;;;;;;;;4924082;29;20087;-80
2024/01/30 00:41:32;;;;;;;10.02;3.10;;;;;;;;;;4923258;29;20070;-80
2024/01/30 00:43:58;;;;;;;6.95;2.70;;;;;;;;;;4921722;29;20071;-79
2024/01/30 00:46:23;;;;;;;5.10;2.80;;;;;;;;;;4923422;29;20047;-79
2024/01/30 00:48:52;;;;;;;7.25;3.05;;;;;;;;;;4941849;29;20144;-79
2024/01/30 00:51:18;;;;;;;9.73;3.00;;;;;;;;;;4945416;29;20118;-80
2024/01/30 00:53:45;;;;;;;9.75;4.18;;;;;;;;;;4944875;29;20070;-78
2024/01/30 00:56:11;;;;;;;6.45;2.72;;;;;;;;;;4945416;29;20035;-80
2024/01/30 00:58:37;;;;;;;8.52;3.38;;;;;;;;;;4961234;28;20122;-78
2024/01/30 01:01:03;;;;;;;10.90;2.75;;;;;;;;;;4945670;29;20027;-80
2024/01/30 01:03:34;;;;;;;5.72;3.13;;;;;;;;;;4959994;29;20395;-79
2024/01/30 01:06:06;;;;;;;6.40;2.90;;;;;;;;;;4976458;28;20039;-79
2024/01/30 01:08:41;;;;;;;6.95;2.67;;;;;;;;;;4961033;29;20047;-80
2024/01/30 01:11:09;;;;;;;5.97;2.85;;;;;;;;;;4929293;29;20027;-79
2024/01/30 01:13:37;;;;;;;8.02;2.85;;;;;;;;;;4944647;29;20490;-80
2024/01/30 01:16:04;;;;;;;6.82;2.80;;;;;;;;;;4945286;29;20066;-80
2024/01/30 01:18:32;;;;;;;13.77;3.47;;;;;;;;;;4950079;29;20031;-81
2024/01/30 01:21:00;;;;;;;7.15;2.90;;;;;;;;;;4967919;28;20029;-81
2024/01/30 01:23:36;;;;;;;7.40;3.05;;;;;;;;;;4957908;28;20038;-80
2024/01/30 01:26:02;;;;;;;6.13;2.80;;;;;;;;;;4965077;28;20031;-79
2024/01/30 01:28:28;;;;;;;7.05;2.60;;;;;;;;;;4981942;28;20034;-79
2024/01/30 01:30:58;;;;;;;6.15;2.95;;;;;;;;;;4965748;28;20070;-79
2024/01/30 01:33:29;;;;;;;9.55;3.17;;;;;;;;;;4981618;28;20091;-80
2024/01/30 01:35:55;;;;;;;6.25;3.03;;;;;;;;;;4965199;28;20047;-79
2024/01/30 01:38:32;;;;;;;5.90;2.72;;;;;;;;;;4978298;28;20038;-79
2024/01/30 01:41:02;;;;;;;9.35;3.40;;;;;;;;;;4972770;29;20102;-80
2024/01/30 01:43:31;;;;;;;8.98;3.40;;;;;;;;;;4969376;28;20040;-79
2024/01/30 01:46:02;;;;;;;10.43;3.13;;;;;;;;;;4959517;29;20031;-79
2024/01/30 01:48:30;;;;;;;8.25;3.00;;;;;;;;;;4964060;29;20038;-79
2024/01/30 01:51:10;;;;;;;5.82;3.13;;;;;;;;;;4980765;29;20110;-79
2024/01/30 01:53:42;;;;;;;9.50;3.50;;;;;;;;;;4980849;28;20031;-80
2024/01/30 01:56:15;;;;;;;8.35;3.45;;;;;;;;;;4980714;28;20023;-79
2024/01/30 01:58:42;;;;;;;10.23;3.45;;;;;;;;;;4977608;28;20022;-80
2024/01/30 02:01:07;;;;;;;10.75;2.90;;;;;;;;;;4952798;29;20039;-80
2024/01/30 02:03:35;;;;;;;9.02;3.40;;;;;;;;;;4931782;29;20376;-78
2024/01/30 02:06:04;;;;;;;10.55;3.85;;;;;;;;;;4929153;29;20035;-79
2024/01/30 02:08:31;;;;;;;7.68;3.42;;;;;;;;;;4943397;29;20498;-78
2024/01/30 02:10:59;;;;;;;22.17;3.88;;;;;;;;;;4960808;28;20023;-78
2024/01/30 02:13:29;;;;;;;11.98;3.40;;;;;;;;;;4944019;28;20031;-79
2024/01/30 02:15:55;;;;;;;8.75;3.10;;;;;;;;;;4943971;29;20039;-80
2024/01/30 02:18:22;;;;;;;7.07;3.45;;;;;;;;;;4959845;29;20502;-79
2024/01/30 02:21:06;;;;;;;8.65;3.22;;;;;;;;;;4960657;29;20039;-78
2024/01/30 02:23:33;;;;;;;6.32;3.13;;;;;;;;;;4946196;29;20070;-79
2024/01/30 02:25:59;;;;;;;8.23;3.40;;;;;;;;;;4943611;29;20053;-79
2024/01/30 02:28:24;;;;;;;11.38;3.63;;;;;;;;;;4943898;29;20027;-79
2024/01/30 02:30:50;;;;;;;10.27;3.10;;;;;;;;;;4943974;29;20046;-79
2024/01/30 02:33:16;;;;;;;8.45;3.05;;;;;;;;;;4943242;28;20486;-79
2024/01/30 02:35:49;;;;;;;10.55;3.22;;;;;;;;;;4959404;29;20078;-79
2024/01/30 02:38:15;;;;;;;9.38;3.83;;;;;;;;;;4943503;29;20043;-78
2024/01/30 02:40:53;;;;;;;8.30;3.75;;;;;;;;;;4959321;29;20041;-79
2024/01/30 02:43:21;;;;;;;9.27;3.80;;;;;;;;;;4960435;28;20058;-79
2024/01/30 02:45:51;;;;;;;;;;;;;;;;;;4958660;29;20042;-80
2024/01/30 02:48:21;;;;;;;6.78;2.92;;;;;;;;;;4944581;29;19914;-79
2024/01/30 02:50:46;;;;;;;9.77;3.42;;;;;;;;;;4959944;29;20050;-79
2024/01/30 02:53:15;;;;;;;7.28;2.83;;;;;;;;;;4959898;28;20043;-79
2024/01/30 02:55:44;;;;;;;9.23;3.33;;;;;;;;;;4959552;29;20043;-79
2024/01/30 02:58:09;;;;;;;9.88;3.75;;;;;;;;;;4943477;29;20051;-80
2024/01/30 03:00:36;;;;;;;7.25;2.95;;;;;;;;;;4945743;29;20127;-80
2024/01/30 03:03:06;;;;;;;8.30;2.90;;;;;;;;;;4960185;29;20056;-80
2024/01/30 03:05:33;;;;;;;8.00;3.28;;;;;;;;;;4960554;28;20505;-80
2024/01/30 03:08:05;;;;;;;6.88;3.53;;;;;;;;;;4944082;29;20065;-80
2024/01/30 03:10:36;;;;;;;8.93;3.85;;;;;;;;;;4957755;28;20506;-79
2024/01/30 03:13:01;;;;;;;8.63;3.60;;;;;;;;;;4958334;29;20035;-79
2024/01/30 03:15:27;;;;;;;9.38;3.58;;;;;;;;;;4942435;29;20031;-79
2024/01/30 03:18:00;;;;;;;7.93;3.38;;;;;;;;;;4942671;29;20047;-79
2024/01/30 03:20:26;;;;;;;9.93;3.42;;;;;;;;;;4941361;29;20047;-80
2024/01/30 03:22:54;;;;;;;6.85;3.15;;;;;;;;;;4959931;28;20035;-79
2024/01/30 03:25:19;;;;;;;8.05;3.03;;;;;;;;;;4925700;29;20039;-80
2024/01/30 03:27:45;;;;;;;8.30;3.72;;;;;;;;;;4957857;29;20440;-80
2024/01/30 03:30:16;;;;;;;9.35;3.17;;;;;;;;;;4957991;29;20479;-79
2024/01/30 03:32:42;;;;;;;7.68;3.63;;;;;;;;;;4958678;28;20027;-79
2024/01/30 03:35:07;;;;;;;9.43;3.40;;;;;;;;;;4942789;29;20504;-78
2024/01/30 03:37:35;;;;;;;8.20;3.20;;;;;;;;;;4960054;28;20050;-79
2024/01/30 03:40:03;;;;;;;10.02;3.38;;;;;;;;;;4960496;29;20050;-80
2024/01/30 03:42:29;;;;;;;5.60;2.95;;;;;;;;;;4944663;29;20031;-79
2024/01/30 03:44:55;;;;;;;9.02;3.10;;;;;;;;;;4959931;28;20041;-79
2024/01/30 03:47:24;;;;;;;7.75;3.25;;;;;;;;;;4961490;28;20515;-80
2024/01/30 03:49:50;;;;;;;14.27;3.50;;;;;;;;;;4944928;29;20032;-78
2024/01/30 03:52:19;;;;;;;12.35;3.55;;;;;;;;;;4928867;29;20050;-79
2024/01/30 03:54:48;;;;;;;8.30;3.97;;;;;;;;;;4959597;28;20045;-80
2024/01/30 03:57:21;;;;;;;9.63;3.30;;;;;;;;;;4960189;29;20034;-78
2024/01/30 03:59:46;;;;;;;9.43;3.45;;;;;;;;;;4958182;28;20035;-79
2024/01/30 04:02:13;;;;;;;8.13;3.10;;;;;;;;;;4974760;28;20086;-79
2024/01/30 04:04:43;;;;;;;7.25;3.00;;;;;;;;;;4960733;28;20035;-80
2024/01/30 04:07:09;;;;;;;10.50;3.17;;;;;;;;;;4978419;28;20038;-78
2024/01/30 04:09:39;;;;;;;12.27;3.75;;;;;;;;;;4963968;28;20045;-78
2024/01/30 04:12:09;;;;;;;9.00;2.90;;;;;;;;;;4968812;29;20043;-79
2024/01/30 04:14:39;;;;;;;11.63;3.67;;;;;;;;;;4967024;28;20102;-80
2024/01/30 04:17:13;;;;;;;11.30;3.20;;;;;;;;;;4956906;29;20041;-81
2024/01/30 04:19:45;;;;;;;11.85;3.15;;;;;;;;;;4960643;29;20035;-80
2024/01/30 04:22:14;;;;;;;9.10;3.53;;;;;;;;;;4993463;28;20039;-79
2024/01/30 04:24:57;;;;;;;7.20;3.83;;;;;;;;;;4968690;28;20055;-79
2024/01/30 04:27:23;;;;;;;6.70;3.20;;;;;;;;;;4999241;28;20078;-79
2024/01/30 04:29:49;;;;;;;7.43;3.40;;;;;;;;;;4982877;28;20035;-79
2024/01/30 04:32:14;;;;;;;9.02;3.70;;;;;;;;;;4970282;28;20055;-78
2024/01/30 04:34:43;;;;;;;9.48;3.70;;;;;;;;;;4948384;28;20046;-79
2024/01/30 04:37:10;;;;;;;;;;;;;;;;;;4962946;29;20043;-80
2024/01/30 04:39:38;;;;;;;12.68;3.40;;;;;;;;;;4947586;29;19914;-78
2024/01/30 04:42:10;;;;;;;7.68;3.30;;;;;;;;;;4976986;28;20057;-80
2024/01/30 04:44:36;;;;;;;10.52;3.63;;;;;;;;;;4946647;29;20497;-79
2024/01/30 04:47:05;;;;;;;7.63;3.77;;;;;;;;;;4964079;28;20039;-79
2024/01/30 04:49:32;;;;;;;10.80;3.33;;;;;;;;;;4960320;28;20352;-79
2024/01/30 04:51:58;;;;;;;6.93;3.58;;;;;;;;;;4945683;29;20034;-79
2024/01/30 04:54:26;;;;;;;12.32;3.83;;;;;;;;;;4978761;28;20039;-80
2024/01/30 04:56:54;;;;;;;7.43;2.83;;;;;;;;;;4962257;28;20032;-79
2024/01/30 04:59:20;;;;;;;7.18;3.67;;;;;;;;;;4960374;29;20050;-79
2024/01/30 05:01:46;;;;;;;10.98;3.35;;;;;;;;;;4962049;29;20035;-79
2024/01/30 05:04:12;;;;;;;10.30;3.15;;;;;;;;;;4945873;29;20122;-79
2024/01/30 05:06:39;;;;;;;8.35;3.55;;;;;;;;;;4946409;29;20050;-79
2024/01/30 05:09:07;;;;;;;12.52;4.00;;;;;;;;;;4947905;29;20107;-79
2024/01/30 05:11:40;;;;;;;8.50;3.45;;;;;;;;;;4963181;28;20069;-80
2024/01/30 05:14:06;;;;;;;8.00;3.47;;;;;;;;;;4961297;29;20061;-79
2024/01/30 05:16:32;;;;;;;8.13;3.25;;;;;;;;;;4979391;28;20039;-80
2024/01/30 05:18:57;;;;;;;13.15;3.80;;;;;;;;;;4963998;28;20491;-78
2024/01/30 05:21:23;;;;;;;11.50;3.78;;;;;;;;;;4963093;28;20081;-79
2024/01/30 05:23:56;;;;;;;11.30;3.63;;;;;;;;;;4959601;29;20039;-80
2024/01/30 05:26:48;;;;;;;8.90;3.97;;;;;;;;;;4959042;28;20047;-79
2024/01/30 05:30:35;;;;;;;10.38;3.60;;;;;;;;;;4971516;28;20035;-80
2024/01/30 05:33:14;;;;;;;7.88;3.63;;;;;;;;;;4974766;28;20591;-79
2024/01/30 05:35:41;;;;;;;11.50;3.25;;;;;;;;;;4959962;28;20396;-78
2024/01/30 05:38:12;;;;;;;8.90;3.00;;;;;;;;;;4947925;29;20043;-80
2024/01/30 05:40:38;;;;;;;8.30;3.47;;;;;;;;;;4946558;29;20483;-79
2024/01/30 05:43:04;;;;;;;9.70;3.45;;;;;;;;;;4959007;29;20114;-79
2024/01/30 05:45:32;;;;;;;8.10;3.63;;;;;;;;;;4957038;29;20042;-79
2024/01/30 05:48:01;;;;;;;11.95;3.97;;;;;;;;;;4960785;29;20169;-79
2024/01/30 05:50:31;;;;;;;8.73;3.80;;;;;;;;;;4960906;28;20059;-80
2024/01/30 05:52:57;;;;;;;8.43;3.60;;;;;;;;;;4943875;28;20051;-80
2024/01/30 05:55:28;;;;;;;7.85;3.15;;;;;;;;;;4941742;29;20431;-80
2024/01/30 05:57:53;;;;;;;7.50;3.28;;;;;;;;;;4960254;28;20122;-80
2024/01/30 06:00:20;;;;;;;8.75;3.33;;;;;;;;;;4942409;29;20039;-79
2024/01/30 06:02:54;;;;;;;8.60;3.65;;;;;;;;;;4943918;29;20094;-79
2024/01/30 06:05:23;;;;;;;12.90;4.68;;;;;;;;;;4941379;29;20035;-80
2024/01/30 06:07:48;;;;;;;8.43;3.70;;;;;;;;;;4945241;28;20044;-80
2024/01/30 06:10:16;;;;;;;9.00;3.88;;;;;;;;;;4910857;29;20098;-79
2024/01/30 06:12:43;;;;;;;14.00;4.13;;;;;;;;;;4960783;28;20046;-80
2024/01/30 06:15:13;;;;;;;9.55;3.80;;;;;;;;;;4941839;29;20269;-79
2024/01/30 06:17:44;;;;;;;8.88;3.13;;;;;;;;;;4942374;29;20043;-80
2024/01/30 06:20:10;;;;;;;12.18;4.00;;;;;;;;;;4951440;28;20055;-79
2024/01/30 06:22:40;;;;;;;12.02;4.45;;;;;;;;;;4908371;29;20057;-79
2024/01/30 06:25:12;;;;;;;7.80;3.10;;;;;;;;;;4923661;29;20403;-80
2024/01/30 06:27:37;;;;;;;12.88;4.53;;;;;;;;;;4939132;29;20036;-80
2024/01/30 06:30:04;;;;;;;13.73;4.00;;;;;;;;;;4907572;29;20399;-80
2024/01/30 06:32:34;;;;;;;10.75;4.32;;;;;;;;;;4939109;29;20039;-79
2024/01/30 06:35:02;;;;;;;7.90;3.97;;;;;;;;;;4924236;29;20069;-81
2024/01/30 06:37:29;;;;;;;20.73;4.80;;;;;;;;;;4923700;29;20070;-79
2024/01/30 06:39:54;;;;;;;26.90;4.60;;;;;;;;;;4939781;29;20031;-78
2024/01/30 06:42:20;;;;;;;12.75;4.07;;;;;;;;;;4924566;29;20063;-80
2024/01/30 06:44:46;;;;;;;25.50;4.95;;;;;;;;;;4924079;29;20066;-78
2024/01/30 06:47:11;;;;;;;12.52;4.10;;;;;;;;;;4921364;29;20086;-80
2024/01/30 06:49:42;;;;;;;11.48;3.88;;;;;;;;;;4922788;29;20396;-78
2024/01/30 06:52:11;;;;;;;15.25;4.43;;;;;;;;;;4922976;29;20637;-79
2024/01/30 06:54:36;;;;;;;12.77;3.83;;;;;;;;;;4908713;29;20036;-79
2024/01/30 06:57:11;;;;;;;11.15;3.95;;;;;;;;;;4942226;29;20253;-79
2024/01/30 06:59:43;;;;;;;15.05;4.20;;;;;;;;;;4922462;29;20443;-81
2024/01/30 07:02:11;;;;;;;13.57;3.65;;;;;;;;;;4922605;29;20040;-79
2024/01/30 07:04:37;;;;;;;8.88;3.92;;;;;;;;;;4923208;29;20039;-80
2024/01/30 07:07:05;;;;;;;13.32;4.22;;;;;;;;;;4931080;29;20039;-79
2024/01/30 07:09:31;;;;;;;11.90;3.80;;;;;;;;;;4960223;29;20082;-79
2024/01/30 07:12:00;;;;;;;10.40;4.28;;;;;;;;;;4976311;28;20020;-80
2024/01/30 07:14:27;;;;;;;10.75;3.78;;;;;;;;;;4961122;28;20038;-80
2024/01/30 07:16:56;;;;;;;14.85;4.38;;;;;;;;;;4960872;28;20039;-80
2024/01/30 07:19:23;;;;;;;11.05;3.58;;;;;;;;;;4949790;28;20050;-78
2024/01/30 07:21:51;;;;;;;8.07;3.80;;;;;;;;;;4927430;29;20047;-80
2024/01/30 07:24:21;;;;;;;8.88;3.85;;;;;;;;;;4942422;29;20115;-80
2024/01/30 07:26:52;;;;;;;9.07;4.13;;;;;;;;;;4922017;29;20077;-81
2024/01/30 07:29:20;;;;;;;;;;;;;;;;;;4938186;29;20079;-79
2024/01/30 07:31:50;;;;;;;13.65;5.43;;;;;;;;;;4937135;29;20363;-80
2024/01/30 07:34:20;;;;;;;17.27;6.65;;;;;;;;;;4939190;29;20039;-80
2024/01/30 07:36:47;;;;;;;16.80;5.95;;;;;;;;;;4921549;29;20491;-80
2024/01/30 07:39:30;;;;;;;13.43;4.32;;;;;;;;;;4929643;29;20042;-79
2024/01/30 07:41:57;;;;;;;14.05;5.20;;;;;;;;;;4942378;29;20133;-80
2024/01/30 07:44:29;;;;;;;8.07;3.97;;;;;;;;;;4941843;29;20066;-79
2024/01/30 07:50:20;;;;;;;11.60;3.33;;;;;;;;;;4956835;28;20035;-80
2024/01/30 07:52:56;;;;;;;12.10;4.03;;;;;;;;;;4950989;28;20085;-80
2024/01/30 07:55:31;;;;;;;9.52;3.75;;;;;;;;;;4974508;28;20043;-79
2024/01/30 07:58:10;;;;;;;18.73;4.63;;;;;;;;;;4957519;28;20042;-80
2024/01/30 08:00:46;;;;;;;15.65;4.40;;;;;;;;;;4976179;28;20046;-80
2024/01/30 08:03:20;;;;;;;11.88;4.00;;;;;;;;;;4975138;28;20039;-78
2024/01/30 08:05:47;;;;;;;15.18;4.03;;;;;;;;;;4943576;28;20062;-81
2024/01/30 08:08:17;;;;;;;14.18;5.28;;;;;;;;;;4976560;28;20098;-79
2024/01/30 08:10:49;;;;;;;22.75;4.93;;;;;;;;;;4977377;28;20478;-80
2024/01/30 08:13:17;;;;;;;10.10;3.55;;;;;;;;;;4958898;28;20035;-80
2024/01/30 08:15:43;;;;;;;9.38;4.25;;;;;;;;;;4964085;28;20032;-77
2024/01/30 08:18:14;;;;;;;9.27;3.83;;;;;;;;;;4920224;29;20042;-79
2024/01/30 08:20:40;;;;;;;14.25;4.32;;;;;;;;;;4938592;29;20472;-79
2024/01/30 08:23:06;;;;;;;10.15;3.95;;;;;;;;;;4935465;29;20040;-79
2024/01/30 08:25:34;;;;;;;10.13;3.70;;;;;;;;;;4922461;29;20032;-80
2024/01/30 08:28:07;;;;;;;15.38;5.18;;;;;;;;;;4935493;29;20047;-79
2024/01/30 08:30:39;;;;;;;;;;;;;;;;;;4923732;29;20412;-79
2024/01/30 08:33:13;;;;;;;14.40;4.60;;;;;;;;;;4935726;29;19911;-79
2024/01/30 08:35:42;;;;;;;13.55;5.32;;;;;;;;;;4920988;29;20054;-79
2024/01/30 08:41:47;;;;;;;24.58;6.13;;;;;;;;;;4973482;28;20047;-80
2024/01/30 08:49:02;;;;;;;11.80;5.57;;;;;;;;;;4984727;28;20043;-78
2024/01/30 08:56:09;;;;;;;10.88;4.35;;;;;;;;;;4935234;29;20076;-78
2024/01/30 08:58:38;;;;;;;11.48;4.78;;;;;;;;;;4935698;29;20384;-79
2024/01/30 09:01:07;;;;;;;12.23;4.50;;;;;;;;;;4935423;29;20107;-79
2024/01/30 09:03:33;;;;;;;18.92;4.97;;;;;;;;;;4939468;29;20530;-78
2024/01/30 09:06:01;;;;;;;13.40;4.95;;;;;;;;;;4940284;29;20055;-78
2024/01/30 09:08:27;;;;;;;11.45;4.82;;;;;;;;;;4956606;28;20054;-77
2024/01/30 09:10:54;;;;;;;13.98;4.65;;;;;;;;;;4959246;29;20114;-78
2024/01/30 09:13:20;;;;;;;10.82;4.53;;;;;;;;;;4959424;28;20027;-79
2024/01/30 09:15:46;;;;;;;12.65;4.78;;;;;;;;;;4942046;29;20138;-78
2024/01/30 09:18:12;;;;;;;15.38;6.22;;;;;;;;;;4959330;28;20094;-78
2024/01/30 09:20:40;;;;;;;13.63;6.38;;;;;;;;;;4927650;29;20054;-78
2024/01/30 09:23:09;;;;;;;14.07;6.28;;;;;;;;;;4957666;29;20039;-78
2024/01/30 09:26:22;;;;;;;11.10;5.00;;;;;;;;;;4943097;29;20111;-78
2024/01/30 09:29:36;;;;;;;10.73;4.03;;;;;;;;;;4930149;29;20047;-80
2024/01/30 09:33:11;;;;;;;9.80;4.38;;;;;;;;;;4918370;29;20032;-78
2024/01/30 09:36:29;;;;;;;12.45;4.70;;;;;;;;;;4918561;29;20174;-78
2024/01/30 09:39:31;;;;;;;10.60;4.30;;;;;;;;;;4919039;29;20037;-77
2024/01/30 09:42:47;;;;;;;10.15;4.13;;;;;;;;;;4905005;29;20087;-78
2024/01/30 09:45:38;;;;;;;11.10;4.40;;;;;;;;;;5103829;23;20064;-77
2024/01/30 09:48:03;;;;;;;11.73;4.53;;;;;;;;;;4981185;28;20124;-78
2024/01/30 09:50:29;;;;;;;10.70;4.57;;;;;;;;;;4996719;28;20572;-79
2024/01/30 09:52:56;;;;;;;12.80;4.50;;;;;;;;;;5009456;28;20110;-78
2024/01/30 09:55:22;;;;;;;11.05;4.10;;;;;;;;;;5017880;28;20030;-79
2024/01/30 09:57:48;;;;;;;11.55;4.13;;;;;;;;;;5000518;28;20084;-78
2024/01/30 10:00:13;;;;;;;11.27;4.28;;;;;;;;;;5005262;28;20123;-79
2024/01/30 10:02:40;;;;;;;10.55;4.20;;;;;;;;;;5020642;28;20117;-79
2024/01/30 10:05:06;;;;;;;10.07;4.65;;;;;;;;;;5022909;28;20069;-79
2024/01/30 10:07:31;;;;;;;12.10;4.68;;;;;;;;;;5039605;28;20045;-78
2024/01/30 10:09:57;;;;;;;10.50;4.03;;;;;;;;;;5039821;28;20029;-79
2024/01/30 10:12:28;;;;;;;10.32;4.55;;;;;;;;;;5039919;28;20026;-78
2024/01/30 10:14:56;;;;;;;12.10;4.15;;;;;;;;;;5039284;28;20041;-79
2024/01/30 10:17:33;;;;;;;10.98;4.43;;;;;;;;;;5027472;28;20034;-79
2024/01/30 10:24:31;;;;;;;9.70;4.00;;;;;;;;;;5016128;28;20040;-79
2024/01/30 10:28:06;;;;;;;9.27;4.10;;;;;;;;;;5014359;28;20563;-79
2024/01/30 10:32:12;;;;;;;9.50;4.65;;;;;;;;;;5018060;28;20121;-79
2024/01/30 10:35:33;;;;;;;12.25;5.03;;;;;;;;;;4987371;23;20046;-79
2024/01/30 10:38:03;;;;;;;11.80;4.72;;;;;;;;;;4979798;28;20034;-78
2024/01/30 10:40:31;;;;;;;11.77;4.50;;;;;;;;;;4978397;28;20027;-79
2024/01/30 10:42:58;;;;;;;10.27;4.47;;;;;;;;;;4977674;28;20280;-79
2024/01/30 10:45:27;;;;;;;13.60;5.30;;;;;;;;;;4960097;28;20109;-78
2024/01/30 10:48:03;;;;;;;11.35;4.72;;;;;;;;;;4961255;28;20026;-79
2024/01/30 10:50:33;;;;;;;13.27;5.15;;;;;;;;;;4945079;28;20034;-79
2024/01/30 10:52:59;;;;;;;10.82;5.03;;;;;;;;;;4976806;28;20482;-79
2024/01/30 10:55:28;;;;;;;14.18;4.88;;;;;;;;;;4976509;28;20038;-79
2024/01/30 10:57:53;;;;;;;;;;;;;;;;;;4960676;28;20042;-77
2024/01/30 11:00:29;;;;;;;9.10;4.43;;;;;;;;;;4976841;28;19910;-77
2024/01/30 11:03:52;;;;;;;14.45;4.82;;;;;;;;;;4967230;28;20109;-78
2024/01/30 11:10:53;;;;;;;11.75;5.10;;;;;;;;;;4995323;28;20093;-78
2024/01/30 11:16:30;;;;;;;12.43;4.88;;;;;;;;;;5007997;23;20066;-78
2024/01/30 11:19:00;;;;;;;13.13;5.05;;;;;;;;;;4975943;28;20047;-77
2024/01/30 11:21:26;;;;;;;10.82;5.00;;;;;;;;;;4976294;28;20054;-77
2024/01/30 11:23:52;;;;;;;10.95;4.63;;;;;;;;;;4977946;28;20027;-78
2024/01/30 11:26:20;;;;;;;12.77;5.13;;;;;;;;;;4977257;28;20367;-77
2024/01/30 11:28:52;;;;;;;9.63;4.88;;;;;;;;;;4977368;28;20038;-78
2024/01/30 11:31:18;;;;;;;10.85;4.53;;;;;;;;;;4977018;28;20031;-78
2024/01/30 11:33:53;;;;;;;14.70;4.72;;;;;;;;;;4977203;28;20034;-78
2024/01/30 11:36:23;;;;;;;10.27;4.95;;;;;;;;;;4959323;28;20410;-77
2024/01/30 11:38:48;;;;;;;17.30;4.90;;;;;;;;;;4975001;28;20042;-78
2024/01/30 11:41:15;;;;;;;12.57;5.55;;;;;;;;;;4957738;28;20038;-77
2024/01/30 11:43:41;;;;;;;24.13;6.20;;;;;;;;;;4972407;28;20487;-79
2024/01/30 11:46:10;;;;;;;13.98;6.03;;;;;;;;;;4956519;28;20141;-78
2024/01/30 11:48:37;;;;;;;23.27;5.93;;;;;;;;;;4975248;28;20708;-79
2024/01/30 11:51:06;;;;;;;13.95;5.53;;;;;;;;;;4958392;28;20042;-78
2024/01/30 11:53:31;;;;;;;11.98;5.35;;;;;;;;;;4975993;28;20027;-81
2024/01/30 11:56:01;;;;;;;10.32;4.72;;;;;;;;;;4959265;28;20051;-79
2024/01/30 11:58:28;;;;;;;13.60;4.70;;;;;;;;;;4959110;28;20030;-79
2024/01/30 12:00:59;;;;;;;10.23;4.70;;;;;;;;;;4942253;28;20511;-80
2024/01/30 12:03:39;;;;;;;12.50;5.63;;;;;;;;;;4977219;28;20026;-79
2024/01/30 12:06:08;;;;;;;11.68;4.68;;;;;;;;;;4974717;28;20065;-78
2024/01/30 12:08:34;;;;;;;11.18;4.97;;;;;;;;;;4942512;28;20031;-78
2024/01/30 12:11:02;;;;;;;12.35;5.72;;;;;;;;;;4958935;28;20035;-79
2024/01/30 12:13:30;;;;;;;10.00;4.50;;;;;;;;;;4975986;28;20027;-80
2024/01/30 12:15:57;;;;;;;9.65;4.60;;;;;;;;;;4958756;28;20039;-78
2024/01/30 12:18:23;;;;;;;8.40;4.47;;;;;;;;;;4976011;28;20030;-78
2024/01/30 12:20:59;;;;;;;13.15;4.28;;;;;;;;;;4975925;28;20038;-78
2024/01/30 12:23:29;;;;;;;11.05;4.93;;;;;;;;;;4976495;28;20050;-77
2024/01/30 12:25:56;;;;;;;11.05;5.15;;;;;;;;;;4976639;28;20074;-78
2024/01/30 12:28:27;;;;;;;9.93;4.75;;;;;;;;;;4975125;28;20496;-78
2024/01/30 12:30:57;;;;;;;13.10;4.28;;;;;;;;;;4961450;28;20621;-77
2024/01/30 12:33:26;;;;;;;14.68;4.90;;;;;;;;;;4977111;28;20470;-78
2024/01/30 12:35:52;;;;;;;11.82;4.63;;;;;;;;;;4976371;28;20027;-78
2024/01/30 12:38:18;;;;;;;9.52;4.68;;;;;;;;;;4955584;28;20107;-80
2024/01/30 12:40:48;;;;;;;12.68;5.18;;;;;;;;;;4954529;28;20038;-79
2024/01/30 12:43:16;;;;;;;10.52;4.78;;;;;;;;;;4936916;28;20126;-80
2024/01/30 12:45:41;;;;;;;8.50;4.68;;;;;;;;;;4983984;28;20425;-79
2024/01/30 12:48:07;;;;;;;16.35;4.32;;;;;;;;;;4991512;28;20062;-79
2024/01/30 12:50:33;;;;;;;11.75;4.13;;;;;;;;;;4955357;28;20058;-79
2024/01/30 12:52:59;;;;;;;10.00;4.63;;;;;;;;;;4973407;28;20103;-80
2024/01/30 12:55:28;;;;;;;20.27;5.97;;;;;;;;;;4976389;28;20006;-79
2024/01/30 12:57:55;;;;;;;7.10;3.72;;;;;;;;;;4999639;28;20018;-79
2024/01/30 13:00:21;;;;;;;10.82;4.28;;;;;;;;;;4973212;28;20031;-79
2024/01/30 13:02:48;;;;;;;11.88;4.60;;;;;;;;;;4970185;28;20038;-79
2024/01/30 13:05:13;;;;;;;11.43;4.65;;;;;;;;;;4980689;28;20023;-78
2024/01/30 13:07:39;;;;;;;13.68;5.15;;;;;;;;;;4975222;28;20093;-79
2024/01/30 13:10:04;;;;;;;9.85;4.30;;;;;;;;;;4972739;28;20030;-78
2024/01/30 13:12:32;;;;;;;15.93;4.32;;;;;;;;;;4950883;28;20022;-78
2024/01/30 13:14:57;;;;;;;15.18;6.95;;;;;;;;;;4981087;28;20034;-78
2024/01/30 13:17:24;;;;;;;12.27;5.25;;;;;;;;;;4966356;28;20042;-79
2024/01/30 13:19:49;;;;;;;9.18;4.63;;;;;;;;;;4968861;28;20115;-79
2024/01/30 13:22:15;;;;;;;8.43;4.50;;;;;;;;;;4949225;28;20126;-79
2024/01/30 13:24:41;;;;;;;16.45;5.15;;;;;;;;;;4980019;28;20058;-79
2024/01/30 13:27:07;;;;;;;17.00;5.38;;;;;;;;;;4945838;28;20037;-79
2024/01/30 13:29:32;;;;;;;12.77;4.47;;;;;;;;;;4961288;28;20035;-79
2024/01/30 13:31:58;;;;;;;10.23;4.82;;;;;;;;;;4961471;28;20030;-79
2024/01/30 13:34:24;;;;;;;8.70;4.10;;;;;;;;;;4948450;28;20031;-79
2024/01/30 13:36:50;;;;;;;10.20;5.20;;;;;;;;;;4973299;28;20493;-80
2024/01/30 13:39:16;;;;;;;10.23;4.80;;;;;;;;;;4963207;28;20027;-80
2024/01/30 13:41:42;;;;;;;8.98;4.40;;;;;;;;;;4977500;28;20114;-80
2024/01/30 13:44:09;;;;;;;11.68;4.95;;;;;;;;;;4945383;28;20121;-79
2024/01/30 13:46:35;;;;;;;9.38;4.30;;;;;;;;;;4973381;28;20041;-80
2024/01/30 13:49:02;;;;;;;9.45;5.00;;;;;;;;;;4951258;29;20049;-79
2024/01/30 13:51:28;;;;;;;10.43;4.85;;;;;;;;;;4941757;28;20027;-79
2024/01/30 13:53:53;;;;;;;14.18;5.45;;;;;;;;;;4942386;28;20506;-79
2024/01/30 13:56:20;;;;;;;12.82;4.95;;;;;;;;;;4962249;28;20095;-79
2024/01/30 13:58:45;;;;;;;15.68;5.32;;;;;;;;;;4963360;28;20031;-80
2024/01/30 14:01:12;;;;;;;15.23;4.72;;;;;;;;;;4945906;28;20050;-79
2024/01/30 14:03:37;;;;;;;11.48;4.55;;;;;;;;;;4951256;28;20035;-79
2024/01/30 14:06:04;;;;;;;13.15;4.45;;;;;;;;;;4994581;28;20525;-79
2024/01/30 14:08:31;;;;;;;13.73;5.07;;;;;;;;;;4994405;28;20035;-79
2024/01/30 14:10:57;;;;;;;14.43;5.47;;;;;;;;;;4972582;28;20034;-79
2024/01/30 14:13:25;;;;;;;14.45;4.93;;;;;;;;;;4959393;28;20102;-77
2024/01/30 14:15:53;;;;;;;9.85;4.78;;;;;;;;;;4979039;28;20054;-79
2024/01/30 14:18:20;;;;;;;12.13;5.35;;;;;;;;;;4965409;28;20031;-79
2024/01/30 14:20:46;;;;;;;9.93;4.82;;;;;;;;;;4973962;28;20028;-79
2024/01/30 14:23:11;;;;;;;14.10;5.47;;;;;;;;;;4954930;28;20041;-79
2024/01/30 14:25:37;;;;;;;10.70;5.13;;;;;;;;;;4945366;28;20042;-79
2024/01/30 14:28:04;;;;;;;12.82;5.40;;;;;;;;;;4977139;28;20529;-76
2024/01/30 14:30:35;;;;;;;11.48;5.90;;;;;;;;;;4958191;28;20034;-80
2024/01/30 14:33:01;;;;;;;10.98;5.05;;;;;;;;;;4961730;28;20037;-79
2024/01/30 14:35:27;;;;;;;11.85;4.78;;;;;;;;;;4955873;28;20022;-79
2024/01/30 14:37:53;;;;;;;15.10;5.05;;;;;;;;;;4959402;28;20060;-79
2024/01/30 14:40:21;;;;;;;17.70;6.30;;;;;;;;;;4953046;28;20049;-77
2024/01/30 14:42:46;;;;;;;10.63;5.10;;;;;;;;;;4969083;28;20486;-78
2024/01/30 14:45:12;;;;;;;17.13;5.75;;;;;;;;;;4957189;28;20039;-79
2024/01/30 14:47:38;;;;;;;12.02;5.10;;;;;;;;;;4970177;28;20023;-78
2024/01/30 14:50:05;;;;;;;8.00;4.10;;;;;;;;;;4970325;28;20077;-78
2024/01/30 14:52:31;;;;;;;10.43;5.05;;;;;;;;;;4957929;28;20022;-79
2024/01/30 14:54:58;;;;;;;15.73;5.85;;;;;;;;;;4940979;29;20073;-78
2024/01/30 14:57:24;;;;;;;11.95;5.13;;;;;;;;;;4972871;28;20034;-79
2024/01/30 14:59:49;;;;;;;15.77;5.22;;;;;;;;;;4975819;28;20541;-78
2024/01/30 15:02:17;;;;;;;14.23;5.40;;;;;;;;;;4930999;28;20035;-79
2024/01/30 15:04:43;;;;;;;13.27;4.72;;;;;;;;;;4976757;28;20030;-79
2024/01/30 15:07:09;;;;;;;13.32;4.65;;;;;;;;;;4959625;28;20080;-78
2024/01/30 15:09:35;;;;;;;12.45;4.82;;;;;;;;;;4955003;28;20027;-79
2024/01/30 15:12:00;;;;;;;18.75;5.20;;;;;;;;;;4957228;28;20045;-78
2024/01/30 15:14:26;;;;;;;10.15;4.93;;;;;;;;;;4939887;28;20500;-78
2024/01/30 15:16:53;;;;;;;12.00;5.78;;;;;;;;;;4941871;28;20050;-79
2024/01/30 15:19:18;;;;;;;21.67;5.53;;;;;;;;;;4953065;28;20093;-80
2024/01/30 15:21:44;;;;;;;12.55;5.13;;;;;;;;;;4940162;28;20039;-79
2024/01/30 15:24:14;;;;;;;12.63;5.70;;;;;;;;;;4973411;28;20037;-81
2024/01/30 15:26:40;;;;;;;9.43;5.13;;;;;;;;;;4974718;28;20039;-78